sensor_id;sensor_type;location;lat;lon;timestamp;pressure;altitude;pressure_sealevel;temperature;humidity
70900;BME280;67902;52.154;5.430;2023-03-31T00:01:50;100411.97;;;9.74;86.43
70900;BME280;67902;52.154;5.430;2023-03-31T00:04:18;100403.88;;;9.74;86.55
70900;BME280;67902;52.154;5.430;2023-03-31T00:06:49;100404.59;;;9.69;86.66
70900;BME280;67902;52.154;5.430;2023-03-31T00:09:20;100394.13;;;9.73;86.59
70900;BME280;67902;52.154;5.430;2023-03-31T00:11:50;100384.13;;;9.73;87.01
70900;BME280;67902;52.154;5.430;2023-03-31T00:14:19;100378.44;;;9.75;87.68
70900;BME280;67902;52.154;5.430;2023-03-31T00:16:46;100370.59;;;9.73;87.91
70900;BME280;67902;52.154;5.430;2023-03-31T00:19:13;100369.53;;;9.74;87.94
70900;BME280;67902;52.154;5.430;2023-03-31T00:21:47;100363.31;;;9.74;87.49
70900;BME280;67902;52.154;5.430;2023-03-31T00:24:14;100366.53;;;9.71;88.08
70900;BME280;67902;52.154;5.430;2023-03-31T00:26:41;100358.97;;;9.73;88.11
70900;BME280;67902;52.154;5.430;2023-03-31T00:29:10;100354.13;;;9.75;88.64
70900;BME280;67902;52.154;5.430;2023-03-31T00:31:37;100350.34;;;9.76;88.78
70900;BME280;67902;52.154;5.430;2023-03-31T00:34:05;100349.28;;;9.77;88.91
70900;BME280;67902;52.154;5.430;2023-03-31T00:36:31;100334.69;;;9.78;88.23
70900;BME280;67902;52.154;5.430;2023-03-31T00:39:04;100326.59;;;9.78;88.17
70900;BME280;67902;52.154;5.430;2023-03-31T00:41:36;100334.19;;;9.81;88.17
70900;BME280;67902;52.154;5.430;2023-03-31T00:46:49;100305.88;;;9.88;88.06
70900;BME280;67902;52.154;5.430;2023-03-31T00:52:13;100299.97;;;9.91;88.08
70900;BME280;67902;52.154;5.430;2023-03-31T00:54:43;100291.91;;;9.97;88.50
70900;BME280;67902;52.154;5.430;2023-03-31T00:57:11;100292.50;;;9.99;87.96
70900;BME280;67902;52.154;5.430;2023-03-31T00:59:42;100289.28;;;10.02;88.10
70900;BME280;67902;52.154;5.430;2023-03-31T01:02:11;100287.97;;;10.04;87.95
70900;BME280;67902;52.154;5.430;2023-03-31T01:04:43;100279.91;;;10.09;87.93
70900;BME280;67902;52.154;5.430;2023-03-31T01:07:19;100276.13;;;10.10;87.95
70900;BME280;67902;52.154;5.430;2023-03-31T01:09:49;100273.97;;;10.12;87.48
70900;BME280;67902;52.154;5.430;2023-03-31T01:12:20;100263.75;;;10.14;87.92
70900;BME280;67902;52.154;5.430;2023-03-31T01:14:49;100262.69;;;10.15;88.00
70900;BME280;67902;52.154;5.430;2023-03-31T01:17:18;100258.38;;;10.19;88.10
70900;BME280;67902;52.154;5.430;2023-03-31T01:20:23;100249.50;;;10.24;89.04
70900;BME280;67902;52.154;5.430;2023-03-31T01:28:28;100230.69;;;10.12;90.95
70900;BME280;67902;52.154;5.430;2023-03-31T01:42:05;100191.41;;;10.05;91.94
70900;BME280;67902;52.154;5.430;2023-03-31T01:45:00;100185.41;;;10.03;92.40
70900;BME280;67902;52.154;5.430;2023-03-31T01:47:36;100185.13;;;9.99;92.55
70900;BME280;67902;52.154;5.430;2023-03-31T01:51:06;100174.31;;;9.99;92.81
70900;BME280;67902;52.154;5.430;2023-03-31T01:53:32;100169.97;;;9.98;93.23
70900;BME280;67902;52.154;5.430;2023-03-31T01:56:06;100164.00;;;9.96;92.59
70900;BME280;67902;52.154;5.430;2023-03-31T01:58:41;100162.09;;;9.97;92.94
70900;BME280;67902;52.154;5.430;2023-03-31T02:01:16;100167.81;;;10.00;93.41
70900;BME280;67902;52.154;5.430;2023-03-31T02:04:08;100153.22;;;10.01;93.12
70900;BME280;67902;52.154;5.430;2023-03-31T02:06:42;100153.22;;;10.01;93.50
70900;BME280;67902;52.154;5.430;2023-03-31T02:09:15;100140.78;;;10.00;93.08
70900;BME280;67902;52.154;5.430;2023-03-31T02:11:44;100144.84;;;10.03;93.13
70900;BME280;67902;52.154;5.430;2023-03-31T02:14:15;100117.78;;;10.03;92.63
70900;BME280;67902;52.154;5.430;2023-03-31T02:16:45;100122.69;;;10.06;93.19
70900;BME280;67902;52.154;5.430;2023-03-31T02:19:16;100120.03;;;10.11;92.45
70900;BME280;67902;52.154;5.430;2023-03-31T02:21:46;100119.84;;;10.17;93.28
70900;BME280;67902;52.154;5.430;2023-03-31T02:24:18;100103.63;;;10.17;92.98
70900;BME280;67902;52.154;5.430;2023-03-31T02:29:25;100093.84;;;10.16;92.43
70900;BME280;67902;52.154;5.430;2023-03-31T02:32:15;100079.81;;;10.19;92.82
70900;BME280;67902;52.154;5.430;2023-03-31T02:34:46;100078.47;;;10.22;92.04
70900;BME280;67902;52.154;5.430;2023-03-31T02:37:13;100067.66;;;10.22;92.95
70900;BME280;67902;52.154;5.430;2023-03-31T02:39:43;100060.34;;;10.22;93.15
70900;BME280;67902;52.154;5.430;2023-03-31T02:42:11;100054.69;;;10.24;93.12
70900;BME280;67902;52.154;5.430;2023-03-31T02:44:38;100053.88;;;10.23;92.91
70900;BME280;67902;52.154;5.430;2023-03-31T02:47:10;100043.09;;;10.28;92.72
70900;BME280;67902;52.154;5.430;2023-03-31T02:49:41;100037.66;;;10.28;93.01
70900;BME280;67902;52.154;5.430;2023-03-31T02:54:49;100021.41;;;10.23;93.41
70900;BME280;67902;52.154;5.430;2023-03-31T03:00:36;100016.53;;;10.20;93.76
70900;BME280;67902;52.154;5.430;2023-03-31T03:06:25;100000.50;;;10.14;93.68
70900;BME280;67902;52.154;5.430;2023-03-31T03:14:58;99973.69;;;10.07;94.04
70900;BME280;67902;52.154;5.430;2023-03-31T03:17:47;99964.72;;;10.02;94.59
70900;BME280;67902;52.154;5.430;2023-03-31T03:20:18;99956.84;;;10.00;94.93
70900;BME280;67902;52.154;5.430;2023-03-31T03:22:44;99951.16;;;9.97;94.41
70900;BME280;67902;52.154;5.430;2023-03-31T03:25:13;99950.34;;;9.96;94.93
70900;BME280;67902;52.154;5.430;2023-03-31T03:27:40;99945.75;;;9.97;94.29
70900;BME280;67902;52.154;5.430;2023-03-31T03:30:09;99940.88;;;9.94;94.07
70900;BME280;67902;52.154;5.430;2023-03-31T03:32:36;99941.94;;;9.93;94.63
70900;BME280;67902;52.154;5.430;2023-03-31T03:35:04;99929.50;;;9.91;94.40
70900;BME280;67902;52.154;5.430;2023-03-31T03:37:31;99924.34;;;9.90;94.58
70900;BME280;67902;52.154;5.430;2023-03-31T03:39:58;99928.94;;;9.89;94.68
70900;BME280;67902;52.154;5.430;2023-03-31T03:42:25;99917.59;;;9.87;94.54
70900;BME280;67902;52.154;5.430;2023-03-31T03:44:52;99916.22;;;9.85;94.27
70900;BME280;67902;52.154;5.430;2023-03-31T03:47:18;99908.63;;;9.82;94.36
70900;BME280;67902;52.154;5.430;2023-03-31T03:49:45;99887.25;;;9.80;95.34
70900;BME280;67902;52.154;5.430;2023-03-31T03:52:14;99894.00;;;9.78;94.88
70900;BME280;67902;52.154;5.430;2023-03-31T03:54:40;99883.47;;;9.76;94.55
70900;BME280;67902;52.154;5.430;2023-03-31T03:57:07;99892.91;;;9.74;94.98
70900;BME280;67902;52.154;5.430;2023-03-31T03:59:33;99875.06;;;9.73;95.09
70900;BME280;67902;52.154;5.430;2023-03-31T04:02:00;99867.19;;;9.71;95.54
70900;BME280;67902;52.154;5.430;2023-03-31T04:04:26;99864.75;;;9.70;95.71
70900;BME280;67902;52.154;5.430;2023-03-31T04:06:53;99884.75;;;9.69;95.23
70900;BME280;67902;52.154;5.430;2023-03-31T04:09:19;99864.22;;;9.68;94.85
70900;BME280;67902;52.154;5.430;2023-03-31T04:11:45;99858.25;;;9.66;95.76
70900;BME280;67902;52.154;5.430;2023-03-31T04:14:12;99855.00;;;9.64;95.51
70900;BME280;67902;52.154;5.430;2023-03-31T04:16:38;99847.41;;;9.61;95.93
70900;BME280;67902;52.154;5.430;2023-03-31T04:19:05;99839.28;;;9.56;95.65
70900;BME280;67902;52.154;5.430;2023-03-31T04:21:32;99828.16;;;9.52;95.47
70900;BME280;67902;52.154;5.430;2023-03-31T04:24:01;99817.09;;;9.49;95.32
70900;BME280;67902;52.154;5.430;2023-03-31T04:26:32;99804.88;;;9.46;96.04
70900;BME280;67902;52.154;5.430;2023-03-31T04:29:10;99799.47;;;9.46;95.81
70900;BME280;67902;52.154;5.430;2023-03-31T04:31:38;99787.59;;;9.42;95.99
70900;BME280;67902;52.154;5.430;2023-03-31T04:34:13;99780.56;;;9.41;95.56
70900;BME280;67902;52.154;5.430;2023-03-31T04:36:41;99778.94;;;9.40;96.14
70900;BME280;67902;52.154;5.430;2023-03-31T04:39:16;99766.22;;;9.41;95.92
70900;BME280;67902;52.154;5.430;2023-03-31T04:41:43;99755.69;;;9.39;95.76
70900;BME280;67902;52.154;5.430;2023-03-31T04:44:10;99744.06;;;9.39;96.27
70900;BME280;67902;52.154;5.430;2023-03-31T04:46:37;99737.84;;;9.38;96.14
70900;BME280;67902;52.154;5.430;2023-03-31T04:49:03;99729.50;;;9.40;95.82
70900;BME280;67902;52.154;5.430;2023-03-31T04:51:43;99730.31;;;9.40;96.49
70900;BME280;67902;52.154;5.430;2023-03-31T04:54:10;99735.72;;;9.45;96.49
70900;BME280;67902;52.154;5.430;2023-03-31T04:56:36;99721.69;;;9.48;96.81
70900;BME280;67902;52.154;5.430;2023-03-31T04:59:03;99731.97;;;9.51;96.21
70900;BME280;67902;52.154;5.430;2023-03-31T05:01:30;99733.88;;;9.56;96.53
70900;BME280;67902;52.154;5.430;2023-03-31T05:04:02;99714.44;;;9.64;96.43
70900;BME280;67902;52.154;5.430;2023-03-31T05:06:29;99714.19;;;9.65;96.25
70900;BME280;67902;52.154;5.430;2023-03-31T05:08:55;99710.69;;;9.65;96.54
70900;BME280;67902;52.154;5.430;2023-03-31T05:11:22;99711.22;;;9.67;96.28
70900;BME280;67902;52.154;5.430;2023-03-31T05:13:48;99694.47;;;9.65;95.79
70900;BME280;67902;52.154;5.430;2023-03-31T05:16:15;99685.00;;;9.62;96.16
70900;BME280;67902;52.154;5.430;2023-03-31T05:18:41;99677.41;;;9.64;96.25
70900;BME280;67902;52.154;5.430;2023-03-31T05:21:15;99674.44;;;9.66;96.42
70900;BME280;67902;52.154;5.430;2023-03-31T05:23:43;99682.00;;;9.64;96.00
70900;BME280;67902;52.154;5.430;2023-03-31T05:26:11;99658.75;;;9.63;95.91
70900;BME280;67902;52.154;5.430;2023-03-31T05:28:39;99659.84;;;9.62;96.13
70900;BME280;67902;52.154;5.430;2023-03-31T05:31:07;99655.81;;;9.64;96.35
70900;BME280;67902;52.154;5.430;2023-03-31T05:33:34;99662.03;;;9.65;96.49
70900;BME280;67902;52.154;5.430;2023-03-31T05:36:07;99665.25;;;9.67;96.15
70900;BME280;67902;52.154;5.430;2023-03-31T05:38:35;99656.63;;;9.70;96.56
70900;BME280;67902;52.154;5.430;2023-03-31T05:41:01;99649.34;;;9.70;96.66
70900;BME280;67902;52.154;5.430;2023-03-31T05:43:28;99652.28;;;9.69;96.33
70900;BME280;67902;52.154;5.430;2023-03-31T05:45:55;99630.66;;;9.69;96.12
70900;BME280;67902;52.154;5.430;2023-03-31T05:48:21;99640.94;;;9.67;96.52
70900;BME280;67902;52.154;5.430;2023-03-31T05:50:48;99639.06;;;9.67;96.37
70900;BME280;67902;52.154;5.430;2023-03-31T05:53:14;99624.72;;;9.67;96.44
70900;BME280;67902;52.154;5.430;2023-03-31T05:55:41;99630.66;;;9.69;96.23
70900;BME280;67902;52.154;5.430;2023-03-31T05:58:07;99621.47;;;9.70;96.00
70900;BME280;67902;52.154;5.430;2023-03-31T06:00:35;99617.72;;;9.71;96.76
70900;BME280;67902;52.154;5.430;2023-03-31T06:03:01;99615.53;;;9.73;96.44
70900;BME280;67902;52.154;5.430;2023-03-31T06:05:28;99610.94;;;9.73;95.87
70900;BME280;67902;52.154;5.430;2023-03-31T06:07:56;99602.56;;;9.75;96.04
70900;BME280;67902;52.154;5.430;2023-03-31T06:10:23;99605.25;;;9.75;96.29
70900;BME280;67902;52.154;5.430;2023-03-31T06:12:49;99604.19;;;9.76;95.87
70900;BME280;67902;52.154;5.430;2023-03-31T06:15:16;99607.44;;;9.78;96.28
70900;BME280;67902;52.154;5.430;2023-03-31T06:17:42;99597.16;;;9.80;95.67
70900;BME280;67902;52.154;5.430;2023-03-31T06:20:09;99594.19;;;9.81;95.74
70900;BME280;67902;52.154;5.430;2023-03-31T06:22:52;99604.72;;;9.83;95.63
70900;BME280;67902;52.154;5.430;2023-03-31T06:25:19;99591.78;;;9.85;95.31
70900;BME280;67902;52.154;5.430;2023-03-31T06:27:46;99590.41;;;9.87;95.16
70900;BME280;67902;52.154;5.430;2023-03-31T06:30:12;99579.06;;;9.90;95.34
70900;BME280;67902;52.154;5.430;2023-03-31T06:32:39;99587.72;;;9.93;94.84
70900;BME280;67902;52.154;5.430;2023-03-31T06:35:05;99584.19;;;9.97;94.20
70900;BME280;67902;52.154;5.430;2023-03-31T06:37:32;99592.88;;;9.99;93.83
70900;BME280;67902;52.154;5.430;2023-03-31T06:39:58;99575.53;;;10.05;94.11
70900;BME280;67902;52.154;5.430;2023-03-31T06:42:25;99572.03;;;10.10;93.52
70900;BME280;67902;52.154;5.430;2023-03-31T06:44:51;99567.16;;;10.17;93.91
70900;BME280;67902;52.154;5.430;2023-03-31T06:47:18;99564.22;;;10.18;93.35
70900;BME280;67902;52.154;5.430;2023-03-31T06:49:44;99571.22;;;10.14;93.52
70900;BME280;67902;52.154;5.430;2023-03-31T06:52:11;99560.69;;;10.13;93.64
70900;BME280;67902;52.154;5.430;2023-03-31T06:54:37;99560.69;;;10.13;93.55
70900;BME280;67902;52.154;5.430;2023-03-31T06:57:04;99559.84;;;10.12;93.44
70900;BME280;67902;52.154;5.430;2023-03-31T06:59:30;99562.81;;;10.11;93.32
70900;BME280;67902;52.154;5.430;2023-03-31T07:01:57;99557.41;;;10.11;93.74
70900;BME280;67902;52.154;5.430;2023-03-31T07:04:24;99559.31;;;10.10;93.40
70900;BME280;67902;52.154;5.430;2023-03-31T07:06:50;99556.09;;;10.13;93.67
70900;BME280;67902;52.154;5.430;2023-03-31T07:09:19;99559.06;;;10.17;93.50
70900;BME280;67902;52.154;5.430;2023-03-31T07:11:49;99552.28;;;10.19;94.28
70900;BME280;67902;52.154;5.430;2023-03-31T07:14:21;99548.22;;;10.22;93.45
70900;BME280;67902;52.154;5.430;2023-03-31T07:16:48;99549.56;;;10.19;93.65
70900;BME280;67902;52.154;5.430;2023-03-31T07:19:16;99548.53;;;10.15;93.85
70900;BME280;67902;52.154;5.430;2023-03-31T07:21:42;99552.81;;;10.11;93.99
70900;BME280;67902;52.154;5.430;2023-03-31T07:24:09;99564.44;;;10.12;94.34
70900;BME280;67902;52.154;5.430;2023-03-31T07:26:35;99550.66;;;10.08;94.91
70900;BME280;67902;52.154;5.430;2023-03-31T07:29:02;99548.75;;;10.09;94.97
70900;BME280;67902;52.154;5.430;2023-03-31T07:31:28;99547.41;;;10.11;95.01
70900;BME280;67902;52.154;5.430;2023-03-31T07:33:55;99537.13;;;10.08;94.51
70900;BME280;67902;52.154;5.430;2023-03-31T07:36:21;99543.34;;;10.09;94.78
70900;BME280;67902;52.154;5.430;2023-03-31T07:38:48;99538.47;;;10.11;94.85
70900;BME280;67902;52.154;5.430;2023-03-31T07:41:17;99548.00;;;10.13;95.02
70900;BME280;67902;52.154;5.430;2023-03-31T07:43:44;99539.06;;;10.13;95.61
70900;BME280;67902;52.154;5.430;2023-03-31T07:46:29;99534.47;;;10.13;95.00
70900;BME280;67902;52.154;5.430;2023-03-31T07:48:56;99527.38;;;10.12;94.78
70900;BME280;67902;52.154;5.430;2023-03-31T07:51:25;99531.19;;;10.16;95.58
70900;BME280;67902;52.154;5.430;2023-03-31T07:53:52;99527.16;;;10.19;95.44
70900;BME280;67902;52.154;5.430;2023-03-31T07:56:21;99523.09;;;10.21;94.81
70900;BME280;67902;52.154;5.430;2023-03-31T07:58:48;99524.13;;;10.25;95.03
70900;BME280;67902;52.154;5.430;2023-03-31T08:01:19;99519.56;;;10.21;94.88
70900;BME280;67902;52.154;5.430;2023-03-31T08:03:47;99520.38;;;10.21;94.89
70900;BME280;67902;52.154;5.430;2023-03-31T08:06:18;99516.88;;;10.16;95.52
70900;BME280;67902;52.154;5.430;2023-03-31T08:08:45;99520.66;;;10.15;95.46
70900;BME280;67902;52.154;5.430;2023-03-31T08:11:11;99522.53;;;10.19;95.71
70900;BME280;67902;52.154;5.430;2023-03-31T08:13:39;99516.03;;;10.20;95.64
70900;BME280;67902;52.154;5.430;2023-03-31T08:16:06;99513.34;;;10.20;95.25
70900;BME280;67902;52.154;5.430;2023-03-31T08:18:34;99507.09;;;10.30;95.83
70900;BME280;67902;52.154;5.430;2023-03-31T08:21:00;99495.97;;;10.46;95.62
70900;BME280;67902;52.154;5.430;2023-03-31T08:23:26;99488.84;;;10.66;95.34
70900;BME280;67902;52.154;5.430;2023-03-31T08:25:53;99493.91;;;10.82;95.13
70900;BME280;67902;52.154;5.430;2023-03-31T08:28:19;99495.72;;;10.97;94.70
70900;BME280;67902;52.154;5.430;2023-03-31T08:30:46;99495.72;;;10.92;94.15
70900;BME280;67902;52.154;5.430;2023-03-31T08:33:13;99505.03;;;10.76;94.41
70900;BME280;67902;52.154;5.430;2023-03-31T08:35:39;99492.88;;;10.68;94.67
70900;BME280;67902;52.154;5.430;2023-03-31T08:38:06;99491.03;;;10.59;95.10
70900;BME280;67902;52.154;5.430;2023-03-31T08:40:32;99484.00;;;10.53;95.04
70900;BME280;67902;52.154;5.430;2023-03-31T08:43:12;99484.81;;;10.53;94.68
70900;BME280;67902;52.154;5.430;2023-03-31T08:45:42;99485.06;;;10.62;95.24
70900;BME280;67902;52.154;5.430;2023-03-31T08:51:06;99471.97;;;10.79;95.08
70900;BME280;67902;52.154;5.430;2023-03-31T08:53:38;99473.63;;;10.80;94.74
70900;BME280;67902;52.154;5.430;2023-03-31T08:56:17;99456.25;;;10.86;94.49
70900;BME280;67902;52.154;5.430;2023-03-31T08:58:48;99461.34;;;10.97;94.55
70900;BME280;67902;52.154;5.430;2023-03-31T09:01:36;99459.66;;;11.01;94.03
70900;BME280;67902;52.154;5.430;2023-03-31T09:07:47;99458.72;;;11.21;93.79
70900;BME280;67902;52.154;5.430;2023-03-31T09:13:36;99449.25;;;11.19;93.43
70900;BME280;67902;52.154;5.430;2023-03-31T09:16:14;99448.97;;;11.20;93.56
70900;BME280;67902;52.154;5.430;2023-03-31T09:18:42;99451.66;;;11.25;93.43
70900;BME280;67902;52.154;5.430;2023-03-31T09:23:54;99444.25;;;11.36;93.18
70900;BME280;67902;52.154;5.430;2023-03-31T09:26:39;99438.22;;;11.44;92.69
70900;BME280;67902;52.154;5.430;2023-03-31T09:29:44;99434.03;;;11.56;92.87
70900;BME280;67902;52.154;5.430;2023-03-31T09:32:19;99456.78;;;11.60;91.88
70900;BME280;67902;52.154;5.430;2023-03-31T09:34:50;99434.53;;;11.63;91.51
70900;BME280;67902;52.154;5.430;2023-03-31T09:37:17;99438.16;;;11.83;91.78
70900;BME280;67902;52.154;5.430;2023-03-31T09:39:44;99434.78;;;11.96;90.70
70900;BME280;67902;52.154;5.430;2023-03-31T09:42:12;99425.03;;;11.95;90.48
70900;BME280;67902;52.154;5.430;2023-03-31T09:44:42;99437.28;;;11.92;90.60
70900;BME280;67902;52.154;5.430;2023-03-31T09:47:19;99425.47;;;11.78;89.78
70900;BME280;67902;52.154;5.430;2023-03-31T09:49:49;99426.88;;;11.71;90.38
70900;BME280;67902;52.154;5.430;2023-03-31T09:52:27;99419.81;;;11.75;90.29
70900;BME280;67902;52.154;5.430;2023-03-31T09:54:59;99423.78;;;11.87;89.82
70900;BME280;67902;52.154;5.430;2023-03-31T09:57:32;99422.38;;;11.90;89.09
70900;BME280;67902;52.154;5.430;2023-03-31T10:02:43;99424.06;;;12.09;89.35
70900;BME280;67902;52.154;5.430;2023-03-31T10:05:31;99417.53;;;12.34;89.03
70900;BME280;67902;52.154;5.430;2023-03-31T10:08:29;99415.41;;;12.50;88.29
70900;BME280;67902;52.154;5.430;2023-03-31T10:16:14;99418.03;;;12.78;87.59
70900;BME280;67902;52.154;5.430;2023-03-31T10:18:46;99406.78;;;13.04;85.51
70900;BME280;67902;52.154;5.430;2023-03-31T10:21:24;99401.84;;;13.06;84.18
70900;BME280;67902;52.154;5.430;2023-03-31T10:23:52;99397.16;;;12.93;84.94
70900;BME280;67902;52.154;5.430;2023-03-31T10:26:25;99384.09;;;12.95;84.15
70900;BME280;67902;52.154;5.430;2023-03-31T10:28:54;99386.59;;;13.42;84.87
70900;BME280;67902;52.154;5.430;2023-03-31T10:31:24;99386.47;;;13.66;83.06
70900;BME280;67902;52.154;5.430;2023-03-31T10:33:52;99391.81;;;13.71;81.21
70900;BME280;67902;52.154;5.430;2023-03-31T10:36:27;99395.94;;;13.68;83.77
70900;BME280;67902;52.154;5.430;2023-03-31T10:38:54;99379.47;;;13.46;80.46
70900;BME280;67902;52.154;5.430;2023-03-31T10:41:27;99387.28;;;13.34;80.50
70900;BME280;67902;52.154;5.430;2023-03-31T10:43:56;99378.94;;;13.76;79.86
70900;BME280;67902;52.154;5.430;2023-03-31T10:46:46;99376.91;;;13.68;79.80
70900;BME280;67902;52.154;5.430;2023-03-31T10:49:36;99360.81;;;13.40;79.65
70900;BME280;67902;52.154;5.430;2023-03-31T10:52:22;99369.53;;;13.23;80.21
70900;BME280;67902;52.154;5.430;2023-03-31T10:54:52;99369.50;;;13.09;79.72
70900;BME280;67902;52.154;5.430;2023-03-31T10:57:32;99367.78;;;12.95;81.36
70900;BME280;67902;52.154;5.430;2023-03-31T11:03:41;99363.84;;;12.68;82.42
70900;BME280;67902;52.154;5.430;2023-03-31T11:06:29;99371.94;;;12.73;85.01
70900;BME280;67902;52.154;5.430;2023-03-31T11:09:02;99364.44;;;12.65;83.84
70900;BME280;67902;52.154;5.430;2023-03-31T11:14:15;99372.94;;;12.40;84.18
70900;BME280;67902;52.154;5.430;2023-03-31T11:17:04;99376.94;;;12.24;85.38
70900;BME280;67902;52.154;5.430;2023-03-31T11:19:49;99378.16;;;12.13;86.73
70900;BME280;67902;52.154;5.430;2023-03-31T11:30:42;99359.13;;;12.18;87.03
70900;BME280;67902;52.154;5.430;2023-03-31T11:39:03;99352.41;;;12.10;87.35
70900;BME280;67902;52.154;5.430;2023-03-31T11:42:00;99360.13;;;12.22;87.07
70900;BME280;67902;52.154;5.430;2023-03-31T11:44:35;99354.94;;;12.26;85.76
70900;BME280;67902;52.154;5.430;2023-03-31T11:47:09;99386.94;;;12.29;83.93
70900;BME280;67902;52.154;5.430;2023-03-31T11:49:43;99354.88;;;12.31;84.96
70900;BME280;67902;52.154;5.430;2023-03-31T11:52:17;99363.94;;;12.21;85.12
70900;BME280;67902;52.154;5.430;2023-03-31T11:55:04;99362.28;;;12.01;85.71
70900;BME280;67902;52.154;5.430;2023-03-31T11:57:34;99368.22;;;11.80;87.77
70900;BME280;67902;52.154;5.430;2023-03-31T12:00:31;99361.63;;;11.62;87.96
70900;BME280;67902;52.154;5.430;2023-03-31T12:03:08;99363.59;;;11.51;88.82
70900;BME280;67902;52.154;5.430;2023-03-31T12:05:42;99359.63;;;11.44;89.45
70900;BME280;67902;52.154;5.430;2023-03-31T12:08:16;99363.47;;;11.38;90.57
70900;BME280;67902;52.154;5.430;2023-03-31T12:11:24;99368.69;;;11.29;91.33
70900;BME280;67902;52.154;5.430;2023-03-31T12:16:44;99351.97;;;11.22;92.13
70900;BME280;67902;52.154;5.430;2023-03-31T12:19:21;99348.72;;;11.20;92.10
70900;BME280;67902;52.154;5.430;2023-03-31T12:24:51;99320.66;;;11.06;92.45
70900;BME280;67902;52.154;5.430;2023-03-31T12:27:39;99338.09;;;11.00;92.79
70900;BME280;67902;52.154;5.430;2023-03-31T12:30:34;99332.63;;;11.05;93.53
70900;BME280;67902;52.154;5.430;2023-03-31T12:33:23;99338.56;;;11.07;93.37
70900;BME280;67902;52.154;5.430;2023-03-31T12:38:57;99336.03;;;11.16;93.74
70900;BME280;67902;52.154;5.430;2023-03-31T12:41:35;99327.16;;;11.10;93.79
70900;BME280;67902;52.154;5.430;2023-03-31T12:47:20;99323.44;;;11.01;93.87
70900;BME280;67902;52.154;5.430;2023-03-31T12:50:11;99326.13;;;11.01;93.22
70900;BME280;67902;52.154;5.430;2023-03-31T12:52:51;99311.50;;;11.02;93.83
70900;BME280;67902;52.154;5.430;2023-03-31T13:01:18;99312.69;;;11.48;93.50
70900;BME280;67902;52.154;5.430;2023-03-31T13:08:57;99289.16;;;11.68;92.78
70900;BME280;67902;52.154;5.430;2023-03-31T13:14:05;99278.91;;;11.64;92.07
70900;BME280;67902;52.154;5.430;2023-03-31T13:16:36;99277.22;;;11.69;92.50
70900;BME280;67902;52.154;5.430;2023-03-31T13:19:03;99276.16;;;11.70;92.46
70900;BME280;67902;52.154;5.430;2023-03-31T13:21:29;99267.59;;;11.57;91.50
70900;BME280;67902;52.154;5.430;2023-03-31T13:24:00;99274.16;;;11.51;91.41
70900;BME280;67902;52.154;5.430;2023-03-31T13:26:37;99263.31;;;11.51;92.43
70900;BME280;67902;52.154;5.430;2023-03-31T13:35:01;99266.59;;;11.25;93.32
70900;BME280;67902;52.154;5.430;2023-03-31T13:46:24;99257.53;;;11.34;92.64
70900;BME280;67902;52.154;5.430;2023-03-31T13:56:58;99249.84;;;11.65;92.43
70900;BME280;67902;52.154;5.430;2023-03-31T13:59:55;99254.47;;;11.70;91.80
70900;BME280;67902;52.154;5.430;2023-03-31T14:02:45;99244.97;;;11.67;92.18
70900;BME280;67902;52.154;5.430;2023-03-31T14:05:36;99240.97;;;11.59;92.50
70900;BME280;67902;52.154;5.430;2023-03-31T14:08:22;99251.81;;;11.59;92.25
70900;BME280;67902;52.154;5.430;2023-03-31T14:11:14;99244.28;;;11.56;92.66
70900;BME280;67902;52.154;5.430;2023-03-31T14:13:42;99244.47;;;11.41;93.45
70900;BME280;67902;52.154;5.430;2023-03-31T14:16:08;99253.88;;;11.25;93.10
70900;BME280;67902;52.154;5.430;2023-03-31T14:18:36;99246.34;;;11.17;93.12
70900;BME280;67902;52.154;5.430;2023-03-31T14:21:20;99234.94;;;11.20;93.53
70900;BME280;67902;52.154;5.430;2023-03-31T14:29:36;99217.97;;;11.57;91.64
70900;BME280;67902;52.154;5.430;2023-03-31T14:37:58;99207.78;;;11.49;91.90
70900;BME280;67902;52.154;5.430;2023-03-31T14:40:28;99210.47;;;11.49;92.31
70900;BME280;67902;52.154;5.430;2023-03-31T14:42:54;99217.28;;;11.46;91.61
70900;BME280;67902;52.154;5.430;2023-03-31T14:45:26;99209.75;;;11.43;92.25
70900;BME280;67902;52.154;5.430;2023-03-31T14:48:10;99204.97;;;11.35;91.29
70900;BME280;67902;52.154;5.430;2023-03-31T14:50:43;99198.28;;;11.28;92.01
70900;BME280;67902;52.154;5.430;2023-03-31T14:53:18;99210.28;;;11.22;92.28
70900;BME280;67902;52.154;5.430;2023-03-31T14:55:48;99222.59;;;11.09;93.27
70900;BME280;67902;52.154;5.430;2023-03-31T14:58:30;99235.16;;;11.00;93.62
70900;BME280;67902;52.154;5.430;2023-03-31T15:01:02;99219.38;;;11.07;92.88
70900;BME280;67902;52.154;5.430;2023-03-31T15:03:31;99212.66;;;11.28;92.73
70900;BME280;67902;52.154;5.430;2023-03-31T15:05:59;99212.97;;;11.45;91.35
70900;BME280;67902;52.154;5.430;2023-03-31T15:08:27;99208.00;;;11.52;91.75
70900;BME280;67902;52.154;5.430;2023-03-31T15:10:58;99206.38;;;11.51;91.34
70900;BME280;67902;52.154;5.430;2023-03-31T15:13:46;99202.13;;;11.45;91.57
70900;BME280;67902;52.154;5.430;2023-03-31T15:16:43;99224.16;;;11.39;92.49
70900;BME280;67902;52.154;5.430;2023-03-31T15:21:37;99199.75;;;11.15;91.80
70900;BME280;67902;52.154;5.430;2023-03-31T15:24:04;99202.84;;;11.09;92.77
70900;BME280;67902;52.154;5.430;2023-03-31T15:26:34;99203.09;;;11.07;92.97
70900;BME280;67902;52.154;5.430;2023-03-31T15:29:28;99205.88;;;11.02;92.93
70900;BME280;67902;52.154;5.430;2023-03-31T15:31:57;99205.88;;;11.02;93.67
70900;BME280;67902;52.154;5.430;2023-03-31T15:34:31;99221.63;;;11.00;93.61
70900;BME280;67902;52.154;5.430;2023-03-31T15:37:05;99206.56;;;10.89;92.80
70900;BME280;67902;52.154;5.430;2023-03-31T15:39:34;99206.06;;;10.82;92.75
70900;BME280;67902;52.154;5.430;2023-03-31T15:42:03;99194.22;;;10.78;93.75
70900;BME280;67902;52.154;5.430;2023-03-31T15:44:36;99196.69;;;10.74;93.52
70900;BME280;67902;52.154;5.430;2023-03-31T15:47:07;99191.84;;;10.71;93.21
70900;BME280;67902;52.154;5.430;2023-03-31T15:49:34;99191.53;;;10.73;93.90
70900;BME280;67902;52.154;5.430;2023-03-31T15:52:01;99193.22;;;10.69;93.73